Metar z pełnej godziny Komunikat METAR ze strony awiacja.imgw.pl Metar G00 EPBY METAR EPBY 230900Z 30014KT 9999 FEW022 SCT026CB BKN048 08/01 Q1019=